Time;durP1;ratioP1;P1;durP2;ratioP2;P2;SDS_P1;SDS_P2;PMS_P1;PMS_P2;Temp;Humidity;BMP_temperature;BMP_pressure;BME280_temperature;BME280_humidity;BME280_pressure;Samples;Min_cycle;Max_cycle;Signal;HPM_P1;HPM_P2
2022/08/08 00:00:37;;;;;;;9.88;5.80;;;;;;;;;;5053076;28;20025;-70
2022/08/08 00:03:06;;;;;;;8.52;5.60;;;;;;;;;;5051796;28;20470;-71
2022/08/08 00:05:42;;;;;;;9.73;5.72;;;;;;;;;;5051754;28;20096;-70
2022/08/08 00:08:26;;;;;;;8.32;5.13;;;;;;;;;;5051930;28;20080;-70
2022/08/08 00:10:55;;;;;;;7.97;5.40;;;;;;;;;;5051985;28;20044;-70
2022/08/08 00:13:27;;;;;;;9.18;5.97;;;;;;;;;;5052134;28;20409;-72
2022/08/08 00:15:57;;;;;;;9.63;6.07;;;;;;;;;;5051253;28;20032;-72
2022/08/08 00:18:34;;;;;;;8.80;5.30;;;;;;;;;;5052118;28;20100;-71
2022/08/08 00:21:01;;;;;;;8.27;4.90;;;;;;;;;;5051606;28;20108;-72
2022/08/08 00:23:49;;;;;;;9.75;6.05;;;;;;;;;;5051682;28;20029;-71
2022/08/08 00:26:17;;;;;;;12.88;5.35;;;;;;;;;;5051527;28;20549;-72
2022/08/08 00:28:46;;;;;;;9.65;5.40;;;;;;;;;;5051505;28;20092;-72
2022/08/08 00:31:16;;;;;;;8.40;5.60;;;;;;;;;;5051114;28;20047;-72
2022/08/08 00:33:46;;;;;;;10.70;5.38;;;;;;;;;;5051561;28;20508;-70
2022/08/08 00:36:32;;;;;;;12.70;5.90;;;;;;;;;;5050860;28;20025;-72
2022/08/08 00:39:10;;;;;;;10.98;5.88;;;;;;;;;;5051203;28;20472;-70
2022/08/08 00:41:36;;;;;;;9.15;6.03;;;;;;;;;;5051291;28;20112;-72
2022/08/08 00:44:11;;;;;;;9.82;5.60;;;;;;;;;;5051579;28;20105;-73
2022/08/08 00:46:49;;;;;;;7.05;4.97;;;;;;;;;;5052005;28;20100;-72
2022/08/08 00:49:30;;;;;;;8.20;5.85;;;;;;;;;;5051649;28;20049;-72
2022/08/08 00:52:05;;;;;;;7.35;5.47;;;;;;;;;;5051063;28;20068;-70
2022/08/08 00:54:49;;;;;;;15.43;5.75;;;;;;;;;;5051239;28;20036;-71
2022/08/08 00:57:15;;;;;;;8.65;5.70;;;;;;;;;;5051820;28;20025;-71
2022/08/08 00:59:59;;;;;;;9.52;5.40;;;;;;;;;;5053042;28;20074;-73
2022/08/08 01:02:28;;;;;;;20.50;6.10;;;;;;;;;;5051909;28;20029;-72
2022/08/08 01:05:08;;;;;;;10.95;5.75;;;;;;;;;;5051175;28;20024;-73
2022/08/08 01:07:44;;;;;;;10.77;5.93;;;;;;;;;;5050215;28;20040;-72
2022/08/08 01:10:30;;;;;;;9.85;5.90;;;;;;;;;;5051393;28;20029;-72
2022/08/08 01:12:55;;;;;;;11.40;6.20;;;;;;;;;;5049331;28;20029;-73
2022/08/08 01:15:40;;;;;;;8.43;5.68;;;;;;;;;;5051000;28;20365;-73
2022/08/08 01:18:09;;;;;;;7.65;5.45;;;;;;;;;;5050715;28;20017;-72
2022/08/08 01:20:42;;;;;;;11.60;5.43;;;;;;;;;;5050805;28;20444;-72
2022/08/08 01:23:11;;;;;;;8.43;5.40;;;;;;;;;;5049672;28;20474;-72
2022/08/08 01:25:56;;;;;;;10.55;6.25;;;;;;;;;;5050152;28;20036;-72
2022/08/08 01:28:22;;;;;;;;;;;;;;;;;;5051057;28;20067;-72
2022/08/08 01:31:03;;;;;;;10.60;6.45;;;;;;;;;;5050714;28;20316;-72
2022/08/08 01:33:44;;;;;;;10.15;5.82;;;;;;;;;;5050369;28;20025;-72
2022/08/08 01:36:10;;;;;;;8.73;5.50;;;;;;;;;;5049538;28;20029;-72
2022/08/08 01:38:39;;;;;;;10.23;6.30;;;;;;;;;;5049135;28;20035;-72
2022/08/08 01:41:14;;;;;;;7.50;5.13;;;;;;;;;;5051239;28;20044;-72
2022/08/08 01:43:47;;;;;;;9.38;5.78;;;;;;;;;;5050669;28;20040;-71
2022/08/08 01:46:26;;;;;;;8.48;5.38;;;;;;;;;;5051094;28;20025;-71
2022/08/08 01:48:52;;;;;;;7.72;5.22;;;;;;;;;;5051512;28;20104;-71
2022/08/08 01:51:40;;;;;;;7.15;5.30;;;;;;;;;;5051324;28;20528;-70
2022/08/08 01:54:14;;;;;;;8.10;5.50;;;;;;;;;;5048750;28;20385;-71
2022/08/08 01:57:03;;;;;;;10.13;5.47;;;;;;;;;;5050785;28;20389;-71
2022/08/08 01:59:38;;;;;;;10.40;5.68;;;;;;;;;;5052665;28;20436;-71
2022/08/08 02:02:05;;;;;;;8.00;5.35;;;;;;;;;;5055108;28;20417;-72
2022/08/08 02:04:41;;;;;;;9.38;5.93;;;;;;;;;;5055267;28;20535;-70
2022/08/08 02:07:16;;;;;;;9.63;6.18;;;;;;;;;;5054431;28;20043;-72
2022/08/08 02:10:00;;;;;;;8.48;4.95;;;;;;;;;;5055018;28;20021;-72
2022/08/08 02:12:31;;;;;;;7.28;5.43;;;;;;;;;;5054801;28;20029;-72
2022/08/08 02:15:02;;;;;;;11.73;6.88;;;;;;;;;;5054991;28;20025;-72
2022/08/08 02:17:32;;;;;;;7.53;5.53;;;;;;;;;;5053310;28;20017;-71
2022/08/08 02:20:04;;;;;;;10.25;5.65;;;;;;;;;;5054769;28;20533;-72
2022/08/08 02:22:39;;;;;;;10.63;5.55;;;;;;;;;;5054777;28;20032;-71
2022/08/08 02:25:09;;;;;;;10.88;5.90;;;;;;;;;;5054931;28;20083;-72
2022/08/08 02:27:40;;;;;;;8.63;5.40;;;;;;;;;;5054793;28;20342;-72
2022/08/08 02:30:09;;;;;;;7.97;5.22;;;;;;;;;;5055218;28;20021;-72
2022/08/08 02:33:01;;;;;;;9.05;4.85;;;;;;;;;;5055030;28;20036;-72
2022/08/08 02:35:42;;;;;;;7.95;5.38;;;;;;;;;;5054787;28;20025;-72
2022/08/08 02:38:11;;;;;;;9.07;5.10;;;;;;;;;;5054965;28;20440;-71
2022/08/08 02:40:56;;;;;;;9.90;5.60;;;;;;;;;;5055013;28;20100;-72
2022/08/08 02:43:32;;;;;;;9.82;5.32;;;;;;;;;;5055061;28;20072;-71
2022/08/08 02:46:11;;;;;;;8.10;4.97;;;;;;;;;;5064318;28;20104;-72
2022/08/08 02:48:55;;;;;;;9.35;5.65;;;;;;;;;;5055851;28;20029;-71
2022/08/08 02:51:24;;;;;;;7.22;5.25;;;;;;;;;;5054277;28;20100;-71
2022/08/08 02:53:49;;;;;;;7.82;5.28;;;;;;;;;;5054142;28;20032;-71
2022/08/08 02:56:34;;;;;;;7.97;5.13;;;;;;;;;;5053511;28;20021;-71
2022/08/08 02:59:03;;;;;;;8.05;5.28;;;;;;;;;;5055596;28;20121;-72
2022/08/08 03:01:48;;;;;;;10.45;6.72;;;;;;;;;;5058931;28;20020;-72
2022/08/08 03:04:32;;;;;;;9.13;6.00;;;;;;;;;;5054160;28;20080;-71
2022/08/08 03:07:17;;;;;;;11.05;6.00;;;;;;;;;;5054222;28;20052;-70
2022/08/08 03:10:01;;;;;;;9.68;5.60;;;;;;;;;;5054706;28;20393;-71
2022/08/08 03:12:33;;;;;;;9.80;6.43;;;;;;;;;;5053026;28;20029;-70
2022/08/08 03:15:02;;;;;;;13.35;5.70;;;;;;;;;;5053760;28;20446;-73
2022/08/08 03:17:37;;;;;;;9.02;6.60;;;;;;;;;;5053576;28;20052;-72
2022/08/08 03:20:06;;;;;;;11.23;6.55;;;;;;;;;;5053205;28;20021;-69
2022/08/08 03:22:32;;;;;;;12.85;6.75;;;;;;;;;;5053923;28;20131;-70
2022/08/08 03:25:00;;;;;;;11.02;7.35;;;;;;;;;;5053575;28;20128;-71
2022/08/08 03:27:29;;;;;;;15.93;7.07;;;;;;;;;;5053633;28;20390;-70
2022/08/08 03:29:58;;;;;;;11.40;6.93;;;;;;;;;;5054005;28;20040;-72
2022/08/08 03:35:10;;;;;;;9.57;7.20;;;;;;;;;;5054032;28;20044;-71
2022/08/08 03:37:36;;;;;;;10.88;7.28;;;;;;;;;;5053765;28;20021;-71
2022/08/08 03:40:03;;;;;;;12.45;7.72;;;;;;;;;;5053636;28;20364;-72
2022/08/08 03:42:29;;;;;;;12.23;7.75;;;;;;;;;;5053447;28;20035;-72
2022/08/08 03:44:55;;;;;;;13.75;7.75;;;;;;;;;;5053625;28;20032;-72
2022/08/08 03:47:21;;;;;;;13.52;7.40;;;;;;;;;;5053156;28;20055;-72
2022/08/08 03:49:48;;;;;;;13.45;7.75;;;;;;;;;;5055129;28;20025;-73
2022/08/08 03:52:15;;;;;;;11.48;7.30;;;;;;;;;;5053570;28;20033;-75
2022/08/08 03:54:44;;;;;;;10.48;6.97;;;;;;;;;;5053513;28;20564;-72
2022/08/08 03:57:14;;;;;;;12.60;7.95;;;;;;;;;;5053587;28;20067;-72
2022/08/08 03:59:40;;;;;;;10.68;7.63;;;;;;;;;;5053238;28;20060;-72
2022/08/08 04:02:16;;;;;;;14.48;8.30;;;;;;;;;;5053137;28;20448;-72
2022/08/08 04:04:42;;;;;;;13.93;8.30;;;;;;;;;;5051809;28;20029;-77
2022/08/08 04:07:08;;;;;;;11.25;7.95;;;;;;;;;;5053101;28;20504;-71
2022/08/08 04:09:34;;;;;;;13.70;7.85;;;;;;;;;;5055261;28;20432;-71
2022/08/08 04:12:00;;;;;;;34.03;10.75;;;;;;;;;;5067299;28;20155;-71
2022/08/08 04:14:27;;;;;;;36.45;10.88;;;;;;;;;;5053543;28;20148;-71
2022/08/08 04:16:53;;;;;;;14.70;8.77;;;;;;;;;;5052652;28;20021;-72
2022/08/08 04:19:19;;;;;;;16.67;7.57;;;;;;;;;;5053535;28;20025;-71
2022/08/08 04:21:45;;;;;;;12.52;7.65;;;;;;;;;;5053484;28;20116;-72
2022/08/08 04:24:11;;;;;;;12.80;7.32;;;;;;;;;;5053950;28;20131;-73
2022/08/08 04:26:37;;;;;;;12.10;8.13;;;;;;;;;;5052925;28;20028;-70
2022/08/08 04:29:03;;;;;;;11.07;7.35;;;;;;;;;;5052967;28;20025;-72
2022/08/08 04:31:29;;;;;;;14.90;7.47;;;;;;;;;;5057443;28;20031;-71
2022/08/08 04:33:55;;;;;;;16.33;9.02;;;;;;;;;;5056479;28;20042;-72
2022/08/08 04:36:21;;;;;;;14.50;8.57;;;;;;;;;;5055236;28;20021;-73
2022/08/08 04:38:47;;;;;;;15.98;8.90;;;;;;;;;;5053425;28;20028;-73
2022/08/08 04:41:13;;;;;;;16.50;9.43;;;;;;;;;;5051461;28;20025;-73
2022/08/08 04:43:39;;;;;;;12.93;8.68;;;;;;;;;;5052231;28;20029;-73
2022/08/08 04:46:05;;;;;;;15.45;9.43;;;;;;;;;;5051850;28;20166;-73
2022/08/08 04:48:31;;;;;;;13.90;9.38;;;;;;;;;;5058265;28;20037;-73
2022/08/08 04:50:57;;;;;;;11.85;7.97;;;;;;;;;;5055862;28;20033;-75
2022/08/08 04:53:23;;;;;;;10.60;6.90;;;;;;;;;;5055798;28;20027;-73
2022/08/08 04:55:49;;;;;;;13.70;7.65;;;;;;;;;;5052973;28;20067;-71
2022/08/08 04:58:16;;;;;;;11.40;7.88;;;;;;;;;;5052119;28;20025;-71
2022/08/08 05:00:42;;;;;;;14.02;8.20;;;;;;;;;;5052695;28;20049;-71
2022/08/08 05:03:08;;;;;;;18.52;8.73;;;;;;;;;;5052279;28;20367;-73
2022/08/08 05:05:33;;;;;;;17.15;9.82;;;;;;;;;;5053259;28;20025;-73
2022/08/08 05:07:59;;;;;;;16.80;10.35;;;;;;;;;;5053907;28;20132;-71
2022/08/08 05:10:28;;;;;;;16.33;10.48;;;;;;;;;;5054743;28;20040;-71
2022/08/08 05:12:55;;;;;;;15.18;10.00;;;;;;;;;;5055981;28;20029;-74
2022/08/08 05:15:20;;;;;;;15.48;10.57;;;;;;;;;;5052789;28;20029;-71
2022/08/08 05:17:46;;;;;;;19.38;10.63;;;;;;;;;;5053999;28;20027;-71
2022/08/08 05:20:12;;;;;;;18.15;10.05;;;;;;;;;;5056410;28;20041;-72
2022/08/08 05:22:38;;;;;;;21.00;9.38;;;;;;;;;;5057975;28;20024;-72
2022/08/08 05:25:05;;;;;;;15.30;9.27;;;;;;;;;;5051566;28;20112;-73
2022/08/08 05:27:31;;;;;;;15.05;8.70;;;;;;;;;;5051457;28;20025;-72
2022/08/08 05:29:57;;;;;;;18.80;10.88;;;;;;;;;;5057070;28;20025;-73
2022/08/08 05:32:23;;;;;;;14.27;10.07;;;;;;;;;;5053736;28;20136;-73
2022/08/08 05:34:50;;;;;;;17.33;9.80;;;;;;;;;;5056646;28;20025;-73
2022/08/08 05:37:23;;;;;;;16.80;9.70;;;;;;;;;;5056603;28;20021;-73
2022/08/08 05:39:53;;;;;;;13.68;9.82;;;;;;;;;;5058444;28;20018;-73
2022/08/08 05:42:20;;;;;;;12.75;8.57;;;;;;;;;;5056230;28;20110;-72
2022/08/08 05:44:47;;;;;;;13.23;9.20;;;;;;;;;;5056368;28;20508;-74
2022/08/08 05:47:13;;;;;;;14.95;9.43;;;;;;;;;;5056185;28;20478;-74
2022/08/08 05:49:42;;;;;;;14.13;9.82;;;;;;;;;;5056930;28;20120;-74
2022/08/08 05:52:08;;;;;;;14.30;9.07;;;;;;;;;;5056820;28;20057;-74
2022/08/08 05:54:34;;;;;;;13.07;8.93;;;;;;;;;;5055514;28;20101;-73
2022/08/08 05:57:00;;;;;;;13.98;9.23;;;;;;;;;;5059917;28;20090;-79
2022/08/08 05:59:26;;;;;;;18.95;8.45;;;;;;;;;;5060876;28;20046;-73
2022/08/08 06:01:53;;;;;;;14.15;7.53;;;;;;;;;;5055264;28;20036;-73
2022/08/08 06:04:23;;;;;;;11.57;6.47;;;;;;;;;;5055574;28;20099;-72
2022/08/08 06:06:50;;;;;;;10.43;6.05;;;;;;;;;;5054864;28;20194;-72
2022/08/08 06:09:17;;;;;;;11.30;6.07;;;;;;;;;;5053953;28;20393;-72
2022/08/08 06:11:44;;;;;;;12.35;5.80;;;;;;;;;;5055063;28;20028;-71
2022/08/08 06:14:10;;;;;;;11.25;5.55;;;;;;;;;;5054786;28;20104;-72
2022/08/08 06:16:36;;;;;;;10.40;6.15;;;;;;;;;;5037262;28;20044;-72
2022/08/08 06:19:03;;;;;;;7.57;5.65;;;;;;;;;;5055109;28;20114;-72
2022/08/08 06:21:29;;;;;;;9.68;5.97;;;;;;;;;;5054675;28;20343;-71
2022/08/08 06:23:55;;;;;;;10.80;6.30;;;;;;;;;;5055812;28;20021;-70
2022/08/08 06:26:23;;;;;;;10.60;6.10;;;;;;;;;;5053965;28;20028;-70
2022/08/08 06:28:58;;;;;;;13.10;7.10;;;;;;;;;;5053720;28;20025;-70
2022/08/08 06:31:25;;;;;;;19.65;5.80;;;;;;;;;;5054514;28;20021;-70
2022/08/08 06:33:58;;;;;;;11.85;5.30;;;;;;;;;;5053956;28;20340;-70
2022/08/08 06:36:31;;;;;;;11.02;5.72;;;;;;;;;;5053415;28;20040;-70
2022/08/08 06:38:59;;;;;;;10.82;4.97;;;;;;;;;;5053745;28;20037;-75
2022/08/08 06:41:26;;;;;;;12.40;6.20;;;;;;;;;;5053817;28;20086;-71
2022/08/08 06:43:55;;;;;;;12.52;6.60;;;;;;;;;;5053625;28;20032;-71
2022/08/08 06:46:21;;;;;;;12.68;6.53;;;;;;;;;;5052972;28;20029;-71
2022/08/08 06:48:48;;;;;;;19.80;7.40;;;;;;;;;;5053542;28;20032;-71
2022/08/08 06:51:16;;;;;;;12.60;6.85;;;;;;;;;;5053613;28;20414;-71
2022/08/08 06:53:42;;;;;;;12.75;6.20;;;;;;;;;;5053351;28;20501;-71
2022/08/08 06:56:08;;;;;;;9.10;5.10;;;;;;;;;;5053666;28;20025;-70
2022/08/08 06:58:34;;;;;;;10.55;4.95;;;;;;;;;;5053699;28;20181;-71
2022/08/08 07:01:02;;;;;;;9.70;5.00;;;;;;;;;;5053368;28;20057;-71
2022/08/08 07:03:52;;;;;;;16.80;5.20;;;;;;;;;;5054631;28;20486;-75
2022/08/08 07:06:19;;;;;;;17.27;4.65;;;;;;;;;;5045458;28;20122;-71
2022/08/08 07:08:47;;;;;;;31.07;4.77;;;;;;;;;;5017058;28;1061389;-70
2022/08/08 07:11:16;;;;;;;13.68;4.40;;;;;;;;;;5054373;28;20048;-71
2022/08/08 07:13:43;;;;;;;14.98;4.55;;;;;;;;;;5054086;28;20083;-73
2022/08/08 07:16:12;;;;;;;17.60;4.70;;;;;;;;;;5054903;28;20025;-71
2022/08/08 07:18:56;;;;;;;14.50;5.10;;;;;;;;;;5054298;28;20074;-72
2022/08/08 07:21:24;;;;;;;15.38;5.32;;;;;;;;;;5059954;28;20021;-71
2022/08/08 07:23:58;;;;;;;11.27;4.95;;;;;;;;;;5067412;28;20045;-72
2022/08/08 07:26:26;;;;;;;18.70;5.97;;;;;;;;;;5061569;28;20385;-72
2022/08/08 07:28:52;;;;;;;14.65;4.60;;;;;;;;;;5057707;28;20025;-71
2022/08/08 07:31:19;;;;;;;13.02;4.65;;;;;;;;;;5054809;28;20029;-71
2022/08/08 07:33:48;;;;;;;9.10;4.40;;;;;;;;;;5054287;28;20039;-72
2022/08/08 07:36:14;;;;;;;13.02;4.10;;;;;;;;;;5051359;28;20021;-72
2022/08/08 07:38:40;;;;;;;9.38;4.78;;;;;;;;;;5055932;28;20071;-72
2022/08/08 07:41:08;;;;;;;12.02;4.63;;;;;;;;;;5054365;28;20106;-71
2022/08/08 07:43:34;;;;;;;12.30;4.57;;;;;;;;;;5053745;28;20051;-71
2022/08/08 07:46:00;;;;;;;10.50;3.90;;;;;;;;;;5053312;28;20037;-72
2022/08/08 07:48:26;;;;;;;12.48;3.58;;;;;;;;;;5054459;28;20033;-71
2022/08/08 07:50:57;;;;;;;11.52;3.40;;;;;;;;;;5053115;28;20482;-73
2022/08/08 07:53:34;;;;;;;12.30;3.83;;;;;;;;;;5052160;28;20393;-71
2022/08/08 07:56:00;;;;;;;7.95;3.28;;;;;;;;;;5053096;28;20033;-72
2022/08/08 07:58:29;;;;;;;9.57;2.90;;;;;;;;;;5054380;28;20040;-70
2022/08/08 08:00:58;;;;;;;13.77;3.80;;;;;;;;;;5056925;28;20082;-72
2022/08/08 08:03:47;;;;;;;11.00;3.75;;;;;;;;;;5056193;28;20021;-71
2022/08/08 08:06:14;;;;;;;7.53;4.25;;;;;;;;;;5047979;28;20073;-71
2022/08/08 08:09:06;;;;;;;9.77;3.95;;;;;;;;;;5053346;28;20044;-71
2022/08/08 08:11:34;;;;;;;12.05;3.75;;;;;;;;;;5051418;28;20200;-71
2022/08/08 08:14:04;;;;;;;10.90;3.78;;;;;;;;;;5053285;28;20334;-71
2022/08/08 08:16:32;;;;;;;12.02;3.30;;;;;;;;;;5053311;28;20021;-72
2022/08/08 08:19:03;;;;;;;7.13;3.45;;;;;;;;;;5054367;28;20025;-73
2022/08/08 08:21:32;;;;;;;9.45;3.00;;;;;;;;;;5055053;28;20024;-72
2022/08/08 08:23:58;;;;;;;7.93;3.00;;;;;;;;;;5054887;28;20071;-71
2022/08/08 08:26:24;;;;;;;10.57;3.58;;;;;;;;;;5052926;28;20032;-71
2022/08/08 08:28:50;;;;;;;6.80;3.67;;;;;;;;;;5053110;28;20085;-73
2022/08/08 08:31:16;;;;;;;6.32;3.35;;;;;;;;;;5054271;28;20021;-72
2022/08/08 08:33:42;;;;;;;14.90;3.13;;;;;;;;;;5059206;28;20100;-72
2022/08/08 08:36:11;;;;;;;8.35;3.17;;;;;;;;;;5052542;28;20484;-72
2022/08/08 08:38:38;;;;;;;8.98;2.75;;;;;;;;;;5052690;28;20103;-71
2022/08/08 08:41:05;;;;;;;9.02;2.70;;;;;;;;;;5053585;28;20025;-75
2022/08/08 08:43:32;;;;;;;21.83;6.93;;;;;;;;;;5052822;28;20048;-73
2022/08/08 08:45:59;;;;;;;9.13;2.85;;;;;;;;;;5055191;28;20028;-71
2022/08/08 08:48:25;;;;;;;18.17;6.40;;;;;;;;;;5052673;28;20037;-73
2022/08/08 08:50:53;;;;;;;12.32;3.80;;;;;;;;;;5055543;28;20025;-76
2022/08/08 08:53:19;;;;;;;8.95;2.60;;;;;;;;;;5053144;28;20371;-70
2022/08/08 08:55:45;;;;;;;11.85;3.47;;;;;;;;;;5050601;28;20430;-70
2022/08/08 08:58:27;;;;;;;15.70;5.15;;;;;;;;;;5052100;28;20021;-71
2022/08/08 09:00:54;;;;;;;16.88;5.68;;;;;;;;;;5051012;28;20388;-72
2022/08/08 09:03:22;;;;;;;12.70;4.22;;;;;;;;;;5044375;28;20100;-71
2022/08/08 09:05:49;;;;;;;14.85;5.88;;;;;;;;;;5051373;28;20032;-70
2022/08/08 09:08:15;;;;;;;17.38;6.60;;;;;;;;;;5051501;28;20044;-71
2022/08/08 09:10:41;;;;;;;32.15;11.50;;;;;;;;;;5051904;28;20055;-70
2022/08/08 09:13:08;;;;;;;7.53;3.22;;;;;;;;;;5052018;28;20029;-71
2022/08/08 09:15:34;;;;;;;18.20;4.82;;;;;;;;;;5052074;28;20035;-70
2022/08/08 09:18:00;;;;;;;13.15;3.60;;;;;;;;;;5055804;28;20049;-71
2022/08/08 09:20:27;;;;;;;11.68;4.50;;;;;;;;;;5054099;28;20075;-72
2022/08/08 09:22:53;;;;;;;6.65;2.42;;;;;;;;;;5055372;28;20100;-71
2022/08/08 09:25:20;;;;;;;12.32;3.60;;;;;;;;;;5053187;28;20029;-70
2022/08/08 09:27:46;;;;;;;10.05;3.13;;;;;;;;;;5051262;28;20082;-77
2022/08/08 09:30:13;;;;;;;13.15;3.08;;;;;;;;;;5050985;28;20033;-70
2022/08/08 09:32:39;;;;;;;14.63;2.42;;;;;;;;;;5054250;28;20482;-72
2022/08/08 09:35:13;;;;;;;8.57;2.20;;;;;;;;;;5054278;28;20036;-70
2022/08/08 09:37:43;;;;;;;4.95;1.80;;;;;;;;;;5050900;28;20036;-72
2022/08/08 09:40:10;;;;;;;9.00;3.53;;;;;;;;;;5051968;28;20023;-71
2022/08/08 09:42:37;;;;;;;11.38;5.25;;;;;;;;;;5050955;28;20025;-70
2022/08/08 09:45:05;;;;;;;11.88;2.40;;;;;;;;;;5051529;28;20039;-71
2022/08/08 09:47:32;;;;;;;12.85;6.40;;;;;;;;;;5052937;28;20079;-71
2022/08/08 09:49:59;;;;;;;9.80;2.72;;;;;;;;;;5057486;28;20025;-73
2022/08/08 09:52:29;;;;;;;8.18;2.00;;;;;;;;;;5056338;28;20035;-73
2022/08/08 09:54:55;;;;;;;9.27;2.95;;;;;;;;;;5059651;28;20521;-70
2022/08/08 09:57:31;;;;;;;9.65;2.33;;;;;;;;;;5052826;28;20021;-71
2022/08/08 09:59:58;;;;;;;10.25;3.22;;;;;;;;;;5051486;28;20025;-72
2022/08/08 10:02:32;;;;;;;7.43;1.90;;;;;;;;;;5049790;28;20025;-72
2022/08/08 10:05:15;;;;;;;7.28;1.80;;;;;;;;;;5057113;28;20516;-71
2022/08/08 10:07:50;;;;;;;9.32;1.95;;;;;;;;;;5053261;28;20037;-72
2022/08/08 10:10:26;;;;;;;7.55;1.98;;;;;;;;;;5054273;28;20025;-71
2022/08/08 10:12:52;;;;;;;7.78;1.88;;;;;;;;;;5054672;28;20026;-73
2022/08/08 10:15:18;;;;;;;10.27;2.00;;;;;;;;;;5052555;28;20048;-73
2022/08/08 10:17:45;;;;;;;7.38;1.80;;;;;;;;;;5051650;28;20052;-72
2022/08/08 10:20:12;;;;;;;6.63;1.90;;;;;;;;;;5052810;28;20148;-72
2022/08/08 10:22:42;;;;;;;9.77;2.03;;;;;;;;;;5058073;28;20052;-71
2022/08/08 10:25:09;;;;;;;11.45;2.67;;;;;;;;;;5054025;28;20033;-72
2022/08/08 10:27:42;;;;;;;5.97;1.92;;;;;;;;;;5054478;28;20108;-72
2022/08/08 10:30:09;;;;;;;8.43;2.10;;;;;;;;;;5055637;28;20502;-71
2022/08/08 10:32:40;;;;;;;9.00;2.38;;;;;;;;;;5054380;28;20032;-72
2022/08/08 10:35:08;;;;;;;8.40;2.33;;;;;;;;;;5056628;28;20437;-71
2022/08/08 10:37:35;;;;;;;11.57;2.47;;;;;;;;;;5053328;28;20051;-72
2022/08/08 10:40:02;;;;;;;7.55;2.03;;;;;;;;;;5053276;28;20047;-72
2022/08/08 10:42:35;;;;;;;11.18;2.58;;;;;;;;;;5055276;28;20025;-72
2022/08/08 10:45:03;;;;;;;7.60;2.10;;;;;;;;;;5057303;28;20025;-71
2022/08/08 10:47:29;;;;;;;8.90;2.65;;;;;;;;;;5057157;28;20040;-73
2022/08/08 10:49:59;;;;;;;14.02;4.00;;;;;;;;;;5056230;28;20102;-71
2022/08/08 10:52:34;;;;;;;8.27;2.35;;;;;;;;;;5054253;28;20033;-74
2022/08/08 10:55:01;;;;;;;7.43;2.60;;;;;;;;;;5054710;28;20012;-72
2022/08/08 10:57:27;;;;;;;9.20;2.03;;;;;;;;;;5060112;28;20032;-71
2022/08/08 10:59:54;;;;;;;8.63;1.92;;;;;;;;;;5056281;28;20470;-73
2022/08/08 11:02:27;;;;;;;9.45;2.08;;;;;;;;;;5055118;28;20037;-72
2022/08/08 11:04:56;;;;;;;8.15;2.63;;;;;;;;;;5054426;28;20502;-71
2022/08/08 11:07:25;;;;;;;9.88;1.95;;;;;;;;;;5054012;28;20025;-72
2022/08/08 11:09:51;;;;;;;4.55;1.42;;;;;;;;;;5055122;28;20052;-74
2022/08/08 11:12:17;;;;;;;5.72;1.55;;;;;;;;;;5054585;28;20119;-71
2022/08/08 11:14:50;;;;;;;5.78;1.83;;;;;;;;;;5054333;28;20486;-72
2022/08/08 11:17:21;;;;;;;6.65;1.50;;;;;;;;;;5055194;28;20021;-72
2022/08/08 11:19:47;;;;;;;8.68;2.58;;;;;;;;;;5055607;28;20436;-72
2022/08/08 11:22:14;;;;;;;7.15;2.30;;;;;;;;;;5053753;28;20025;-71
2022/08/08 11:24:42;;;;;;;8.20;2.22;;;;;;;;;;5055052;28;20025;-73
2022/08/08 11:27:09;;;;;;;7.80;1.65;;;;;;;;;;5059518;28;20064;-72
2022/08/08 11:29:35;;;;;;;8.52;1.95;;;;;;;;;;5053750;28;20036;-72
2022/08/08 11:32:02;;;;;;;12.85;5.15;;;;;;;;;;5055374;28;20025;-72
2022/08/08 11:34:32;;;;;;;7.20;2.40;;;;;;;;;;5056688;28;20013;-72
2022/08/08 11:36:59;;;;;;;9.85;1.80;;;;;;;;;;5058792;28;20027;-73
2022/08/08 11:39:25;;;;;;;6.07;2.00;;;;;;;;;;5059156;28;20033;-72
2022/08/08 11:41:52;;;;;;;10.18;2.05;;;;;;;;;;5059637;28;20032;-73
2022/08/08 11:44:19;;;;;;;9.27;2.15;;;;;;;;;;5059338;28;20029;-73
2022/08/08 11:46:45;;;;;;;6.68;2.00;;;;;;;;;;5056019;28;20091;-73
2022/08/08 11:49:12;;;;;;;5.72;2.22;;;;;;;;;;5055225;28;20378;-72
2022/08/08 11:51:38;;;;;;;6.18;1.55;;;;;;;;;;5056691;28;20025;-72
2022/08/08 11:54:04;;;;;;;10.32;2.00;;;;;;;;;;5056076;28;20041;-72
2022/08/08 11:56:34;;;;;;;7.03;1.67;;;;;;;;;;5055202;28;20017;-73
2022/08/08 11:59:07;;;;;;;5.88;1.90;;;;;;;;;;5057062;28;20029;-75
2022/08/08 12:01:33;;;;;;;4.97;1.40;;;;;;;;;;5056249;28;20385;-73
2022/08/08 12:03:59;;;;;;;8.50;1.23;;;;;;;;;;5057029;28;20100;-74
2022/08/08 12:06:25;;;;;;;8.90;1.92;;;;;;;;;;5055503;28;20084;-72
2022/08/08 12:08:51;;;;;;;6.28;1.73;;;;;;;;;;5053124;28;20110;-73
2022/08/08 12:11:18;;;;;;;6.10;1.63;;;;;;;;;;5054643;28;20029;-74
2022/08/08 12:13:48;;;;;;;7.78;1.70;;;;;;;;;;5055798;28;20037;-73
2022/08/08 12:16:16;;;;;;;7.28;2.28;;;;;;;;;;5059248;28;20497;-72
2022/08/08 12:18:53;;;;;;;10.95;2.72;;;;;;;;;;5055978;28;20358;-72
2022/08/08 12:21:20;;;;;;;3.70;1.40;;;;;;;;;;5054363;28;20021;-72
2022/08/08 12:23:46;;;;;;;6.28;1.48;;;;;;;;;;5055554;28;20037;-74
2022/08/08 12:26:12;;;;;;;7.72;1.30;;;;;;;;;;5054768;28;20032;-72
2022/08/08 12:28:39;;;;;;;3.83;1.15;;;;;;;;;;5057257;28;20040;-71
2022/08/08 12:31:06;;;;;;;4.75;1.75;;;;;;;;;;5057965;28;20044;-72
2022/08/08 12:33:32;;;;;;;6.28;2.00;;;;;;;;;;5057653;28;20029;-72
2022/08/08 12:35:58;;;;;;;8.15;1.45;;;;;;;;;;5059203;28;20068;-73
2022/08/08 12:38:24;;;;;;;9.10;1.65;;;;;;;;;;5056998;28;20032;-73
2022/08/08 12:40:53;;;;;;;6.55;1.50;;;;;;;;;;5054473;28;20021;-72
2022/08/08 12:43:29;;;;;;;5.93;1.52;;;;;;;;;;5059577;28;20123;-71
2022/08/08 12:45:55;;;;;;;5.30;1.17;;;;;;;;;;5055362;28;20029;-70
2022/08/08 12:48:22;;;;;;;4.00;1.45;;;;;;;;;;5055308;28;20517;-73
2022/08/08 12:50:50;;;;;;;4.53;1.08;;;;;;;;;;5055544;28;20036;-72
2022/08/08 12:53:25;;;;;;;5.72;1.73;;;;;;;;;;5056314;28;20025;-71
2022/08/08 12:55:52;;;;;;;5.13;1.02;;;;;;;;;;5062133;28;20494;-72
2022/08/08 12:58:18;;;;;;;2.63;1.08;;;;;;;;;;5057988;28;20025;-73
2022/08/08 13:00:45;;;;;;;6.50;2.58;;;;;;;;;;5058285;28;20048;-72
2022/08/08 13:03:21;;;;;;;6.50;2.35;;;;;;;;;;5058131;28;20100;-73
2022/08/08 13:05:47;;;;;;;7.82;1.63;;;;;;;;;;5059078;28;20480;-71
2022/08/08 13:08:14;;;;;;;8.25;2.47;;;;;;;;;;5058521;28;20037;-76
2022/08/08 13:10:49;;;;;;;4.95;1.38;;;;;;;;;;5057878;28;20115;-72
2022/08/08 13:13:29;;;;;;;5.65;1.70;;;;;;;;;;5057444;28;20115;-73
2022/08/08 13:15:55;;;;;;;5.82;1.33;;;;;;;;;;5060062;28;20110;-74
2022/08/08 13:18:21;;;;;;;5.70;1.52;;;;;;;;;;5059074;28;20474;-72
2022/08/08 13:20:48;;;;;;;7.32;1.35;;;;;;;;;;5061240;28;20052;-74
2022/08/08 13:23:20;;;;;;;10.68;4.18;;;;;;;;;;5051440;28;20099;-75
2022/08/08 13:25:46;;;;;;;3.72;1.58;;;;;;;;;;5056270;28;20036;-71
2022/08/08 13:28:12;;;;;;;5.45;1.60;;;;;;;;;;5052412;28;20021;-73
2022/08/08 13:30:38;;;;;;;8.88;1.98;;;;;;;;;;5053903;28;20517;-72
2022/08/08 13:33:04;;;;;;;10.15;2.45;;;;;;;;;;5062994;28;20025;-72
2022/08/08 13:35:30;;;;;;;6.20;1.60;;;;;;;;;;5069007;28;20032;-71
2022/08/08 13:38:00;;;;;;;6.60;1.55;;;;;;;;;;5059342;28;20059;-72
2022/08/08 13:40:26;;;;;;;6.97;2.00;;;;;;;;;;5052018;28;20451;-77
2022/08/08 13:42:53;;;;;;;9.48;2.13;;;;;;;;;;5051668;28;20152;-72
2022/08/08 13:45:19;;;;;;;9.55;2.03;;;;;;;;;;5052432;28;20029;-73
2022/08/08 13:48:06;;;;;;;8.40;1.42;;;;;;;;;;5051762;28;20033;-77
2022/08/08 13:50:33;;;;;;;8.77;1.90;;;;;;;;;;5052596;28;20060;-74
2022/08/08 13:52:58;;;;;;;8.18;1.65;;;;;;;;;;5052673;28;20482;-74
2022/08/08 13:55:27;;;;;;;9.73;2.70;;;;;;;;;;5051499;28;20111;-72
2022/08/08 13:57:53;;;;;;;5.15;1.48;;;;;;;;;;5055978;28;20057;-74
2022/08/08 14:00:21;;;;;;;7.22;2.17;;;;;;;;;;5055658;28;20040;-75
2022/08/08 14:03:02;;;;;;;7.90;2.55;;;;;;;;;;5059085;28;20513;-73
2022/08/08 14:05:29;;;;;;;9.05;2.17;;;;;;;;;;5059435;28;20036;-73
2022/08/08 14:07:55;;;;;;;6.45;1.75;;;;;;;;;;5056654;28;20064;-72
2022/08/08 14:10:22;;;;;;;7.90;1.77;;;;;;;;;;5057833;28;20036;-74
2022/08/08 14:12:50;;;;;;;12.38;6.20;;;;;;;;;;5060154;28;20028;-74
2022/08/08 14:15:32;;;;;;;6.78;2.10;;;;;;;;;;5057706;28;20043;-72
2022/08/08 14:18:02;;;;;;;10.18;1.83;;;;;;;;;;5056867;28;20017;-74
2022/08/08 14:20:35;;;;;;;6.50;1.52;;;;;;;;;;5059211;28;20051;-71
2022/08/08 14:23:10;;;;;;;10.73;2.10;;;;;;;;;;5058965;28;20025;-75
2022/08/08 14:25:56;;;;;;;7.53;1.95;;;;;;;;;;5056717;28;20031;-75
2022/08/08 14:28:22;;;;;;;8.98;2.33;;;;;;;;;;5057274;28;20067;-73
2022/08/08 14:30:49;;;;;;;11.95;2.03;;;;;;;;;;5056891;28;20036;-72
2022/08/08 14:33:26;;;;;;;6.03;1.48;;;;;;;;;;5055001;28;20029;-72
2022/08/08 14:35:59;;;;;;;9.73;2.05;;;;;;;;;;5055110;28;20039;-72
2022/08/08 14:38:29;;;;;;;12.55;1.95;;;;;;;;;;5056077;28;20032;-71
2022/08/08 14:40:56;;;;;;;6.90;1.50;;;;;;;;;;5060395;28;20025;-74
2022/08/08 14:43:26;;;;;;;6.45;1.35;;;;;;;;;;5054814;28;20107;-72
2022/08/08 14:46:02;;;;;;;7.22;1.67;;;;;;;;;;5054657;28;20064;-72
2022/08/08 14:48:38;;;;;;;6.60;1.55;;;;;;;;;;5069612;28;20094;-72
2022/08/08 14:51:05;;;;;;;7.72;2.00;;;;;;;;;;5054954;28;20029;-71
2022/08/08 14:53:34;;;;;;;5.38;1.52;;;;;;;;;;5055602;28;20394;-73